Time;durP1;ratioP1;P1;durP2;ratioP2;P2;SDS_P1;SDS_P2;PMS_P1;PMS_P2;Temp;Humidity;BMP_temperature;BMP_pressure;BME280_temperature;BME280_humidity;BME280_pressure;Samples;Min_cycle;Max_cycle;Signal;HPM_P1;HPM_P2
2023/01/21 00:02:16;;;;;;;;;;;27.50;91.30;;;;;;5050134;28;19951;-70
2023/01/21 00:04:43;;;;;;;;;;;27.70;92.20;;;;;;5037471;28;20006;-71
2023/01/21 00:07:09;;;;;;;;;;;27.80;91.70;;;;;;5033143;28;20259;-70
2023/01/21 00:09:37;;;;;;;;;;;27.70;91.90;;;;;;5042085;28;19916;-70
2023/01/21 00:12:04;;;;;;;;;;;27.60;91.00;;;;;;5029479;28;19926;-70
2023/01/21 00:14:31;;;;;;;;;;;27.30;90.90;;;;;;5029424;28;19943;-70
2023/01/21 00:16:58;;;;;;;;;;;27.10;91.70;;;;;;5029210;28;19980;-70
2023/01/21 00:19:25;;;;;;;;;;;27.10;93.00;;;;;;5028807;28;19993;-71
2023/01/21 00:21:52;;;;;;;;;;;27.70;93.50;;;;;;5032285;28;19917;-71
2023/01/21 00:24:21;;;;;;;;;;;28.40;92.20;;;;;;5028312;28;20447;-72
2023/01/21 00:26:48;;;;;;;;;;;29.10;91.30;;;;;;5029303;28;19920;-71
2023/01/21 00:29:14;;;;;;;;;;;29.70;90.40;;;;;;5029671;28;19924;-72
2023/01/21 00:31:41;;;;;;;;;;;30.10;88.10;;;;;;5028261;28;19912;-71
2023/01/21 00:34:07;;;;;;;;;;;30.40;88.90;;;;;;5031544;28;20256;-71
2023/01/21 00:36:34;;;;;;;;;;;30.80;88.80;;;;;;5029908;28;20564;-71
2023/01/21 00:39:01;;;;;;;;;;;30.60;88.30;;;;;;5028100;28;20363;-72
2023/01/21 00:41:27;;;;;;;;;;;30.10;86.70;;;;;;5027304;28;20458;-72
2023/01/21 00:43:54;;;;;;;;;;;29.80;86.30;;;;;;5029854;28;19913;-71
2023/01/21 00:46:21;;;;;;;;;;;29.90;87.10;;;;;;5028605;28;19966;-72
2023/01/21 00:48:47;;;;;;;;;;;29.80;85.80;;;;;;5028169;28;20450;-71
2023/01/21 00:51:15;;;;;;;;;;;29.80;86.00;;;;;;5030056;28;19947;-72
2023/01/21 00:53:41;;;;;;;;;;;29.80;86.50;;;;;;5029309;28;19924;-71
2023/01/21 00:56:09;;;;;;;;;;;29.40;86.20;;;;;;5028137;28;19995;-71
2023/01/21 00:58:36;;;;;;;;;;;28.90;86.70;;;;;;5027569;28;19917;-72
2023/01/21 01:01:08;;;;;;;;;;;28.60;87.90;;;;;;5033341;28;19913;-74
2023/01/21 01:03:35;;;;;;;;;;;28.20;88.00;;;;;;5028749;28;20011;-71
2023/01/21 01:06:06;;;;;;;;;;;28.30;89.40;;;;;;5031226;28;20413;-71
2023/01/21 01:08:33;;;;;;;;;;;28.30;87.50;;;;;;5028701;28;19923;-73
2023/01/21 01:11:00;;;;;;;;;;;28.30;88.00;;;;;;5029365;28;19971;-72
2023/01/21 01:13:27;;;;;;;;;;;28.50;88.10;;;;;;5027504;28;19917;-73
2023/01/21 01:15:56;;;;;;;;;;;28.70;89.60;;;;;;5028704;28;19920;-70
2023/01/21 01:18:23;;;;;;;;;;;29.00;88.10;;;;;;5027741;28;19916;-71
2023/01/21 01:20:51;;;;;;;;;;;29.10;89.90;;;;;;5030527;28;19916;-72
2023/01/21 01:23:18;;;;;;;;;;;29.20;89.70;;;;;;5030331;28;19955;-72
2023/01/21 01:25:53;;;;;;;;;;;29.50;87.40;;;;;;5030088;28;19913;-72
2023/01/21 01:28:20;;;;;;;;;;;29.70;87.30;;;;;;5028062;28;19916;-71
2023/01/21 01:30:47;;;;;;;;;;;29.70;87.20;;;;;;5029389;28;19917;-71
2023/01/21 01:33:14;;;;;;;;;;;29.80;87.70;;;;;;5027424;28;19977;-71
2023/01/21 01:35:40;;;;;;;;;;;30.00;86.10;;;;;;5028711;28;21120;-73
2023/01/21 01:38:08;;;;;;;;;;;29.80;84.80;;;;;;5027974;28;19978;-71
2023/01/21 01:40:36;;;;;;;;;;;29.50;85.30;;;;;;5030657;28;20012;-72
2023/01/21 01:43:05;;;;;;;;;;;29.40;85.90;;;;;;5025977;28;19916;-73
2023/01/21 01:45:32;;;;;;;;;;;29.30;88.20;;;;;;5027797;28;19941;-72
2023/01/21 01:48:01;;;;;;;;;;;29.00;88.90;;;;;;5028376;28;19917;-70
2023/01/21 01:50:33;;;;;;;;;;;28.70;87.80;;;;;;5029090;28;19920;-70
2023/01/21 01:53:00;;;;;;;;;;;28.30;87.90;;;;;;5027549;28;19917;-71
2023/01/21 01:55:31;;;;;;;;;;;27.90;88.50;;;;;;5026909;28;19913;-69
2023/01/21 01:57:59;;;;;;;;;;;27.60;88.40;;;;;;5039711;28;19916;-70
2023/01/21 02:00:26;;;;;;;;;;;27.30;89.00;;;;;;5026711;28;19924;-70
2023/01/21 02:05:38;;;;;;;;;;;27.20;90.70;;;;;;5024910;28;19919;-70
2023/01/21 02:08:06;;;;;;;;;;;27.30;90.50;;;;;;5029922;28;20446;-70
2023/01/21 02:10:33;;;;;;;;;;;27.50;90.70;;;;;;5029923;28;19932;-71
2023/01/21 02:13:00;;;;;;;;;;;27.70;90.90;;;;;;5040383;28;19938;-70
2023/01/21 02:15:40;;;;;;;;;;;28.20;90.40;;;;;;5029865;28;20384;-70
2023/01/21 02:18:13;;;;;;;;;;;29.20;90.20;;;;;;5028737;28;19912;-70
2023/01/21 02:20:42;;;;;;;;;;;29.70;86.20;;;;;;5027862;28;20283;-70
2023/01/21 02:23:18;;;;;;;;;;;29.50;87.70;;;;;;5027299;28;20046;-70
2023/01/21 02:26:03;;;;;;;;;;;29.10;87.60;;;;;;5028970;28;20355;-70
2023/01/21 02:28:48;;;;;;;;;;;29.00;88.20;;;;;;5028950;28;19916;-71
2023/01/21 02:31:24;;;;;;;;;;;29.50;89.40;;;;;;5028902;28;19935;-71
2023/01/21 02:33:51;;;;;;;;;;;29.60;90.10;;;;;;5028094;28;20382;-70
2023/01/21 02:36:23;;;;;;;;;;;29.20;89.70;;;;;;5029320;28;19917;-70
2023/01/21 02:38:57;;;;;;;;;;;29.30;90.00;;;;;;5028646;28;19921;-70
2023/01/21 02:41:33;;;;;;;;;;;29.60;89.30;;;;;;5029108;28;19975;-68
2023/01/21 02:44:10;;;;;;;;;;;29.80;89.20;;;;;;5030446;28;19960;-69
2023/01/21 02:46:41;;;;;;;;;;;29.90;89.90;;;;;;5029074;28;19916;-69
2023/01/21 02:49:14;;;;;;;;;;;30.30;88.90;;;;;;5026973;28;20011;-70
2023/01/21 02:51:45;;;;;;;;;;;30.70;90.00;;;;;;5026970;28;19955;-70
2023/01/21 02:54:31;;;;;;;;;;;30.80;86.70;;;;;;5027293;28;20014;-70
2023/01/21 02:56:58;;;;;;;;;;;30.90;87.80;;;;;;5025385;28;19916;-71
2023/01/21 02:59:24;;;;;;;;;;;30.90;86.30;;;;;;5028711;28;20358;-69
2023/01/21 03:02:01;;;;;;;;;;;31.10;88.70;;;;;;5027324;28;19921;-72
2023/01/21 03:04:30;;;;;;;;;;;31.30;90.00;;;;;;5024344;28;19919;-69
2023/01/21 03:06:57;;;;;;;;;;;31.40;88.30;;;;;;5026022;28;20023;-68
2023/01/21 03:09:25;;;;;;;;;;;31.40;88.30;;;;;;5029049;28;19920;-70
2023/01/21 03:12:12;;;;;;;;;;;31.50;86.40;;;;;;5023073;28;20347;-69
2023/01/21 03:18:08;;;;;;;;;;;31.50;86.20;;;;;;4995859;28;19916;-68
2023/01/21 03:20:47;;;;;;;;;;;30.40;86.80;;;;;;5025681;28;19917;-69
2023/01/21 03:23:15;;;;;;;;;;;29.80;88.10;;;;;;5028681;28;19956;-71
2023/01/21 03:25:43;;;;;;;;;;;29.90;88.20;;;;;;5026165;28;19916;-71
2023/01/21 03:28:11;;;;;;;;;;;30.20;88.50;;;;;;5027013;28;19920;-70
2023/01/21 03:30:40;;;;;;;;;;;29.40;89.20;;;;;;5025038;28;20220;-70
2023/01/21 03:33:08;;;;;;;;;;;28.70;90.20;;;;;;5029641;28;19927;-71
2023/01/21 03:35:37;;;;;;;;;;;28.10;90.30;;;;;;5028782;28;19960;-72
2023/01/21 03:38:13;;;;;;;;;;;27.60;90.40;;;;;;5026918;28;20004;-70
2023/01/21 03:41:00;;;;;;;;;;;27.30;91.00;;;;;;5024851;28;19927;-70
2023/01/21 03:43:26;;;;;;;;;;;27.20;91.10;;;;;;5026668;28;19916;-70
2023/01/21 03:45:53;;;;;;;;;;;27.40;91.20;;;;;;5026897;28;19916;-71
2023/01/21 03:48:42;;;;;;;;;;;28.10;91.00;;;;;;5025616;28;22746;-71
2023/01/21 03:51:10;;;;;;;;;;;28.80;91.20;;;;;;5028376;28;19916;-71
2023/01/21 03:53:37;;;;;;;;;;;29.30;91.00;;;;;;5025340;28;19944;-70
2023/01/21 03:56:04;;;;;;;;;;;29.40;90.40;;;;;;5029502;28;20574;-71
2023/01/21 03:58:31;;;;;;;;;;;29.40;90.70;;;;;;5032394;28;19967;-70
2023/01/21 04:00:57;;;;;;;;;;;29.30;90.70;;;;;;5027333;28;19917;-70
2023/01/21 04:03:24;;;;;;;;;;;29.40;91.10;;;;;;5027654;28;19912;-71
2023/01/21 04:05:51;;;;;;;;;;;29.10;90.30;;;;;;5029098;28;20458;-70
2023/01/21 04:08:17;;;;;;;;;;;28.50;90.80;;;;;;5028096;28;19915;-71
2023/01/21 04:10:44;;;;;;;;;;;28.50;90.90;;;;;;5031423;28;19925;-70
2023/01/21 04:13:10;;;;;;;;;;;28.80;91.50;;;;;;5037326;28;19913;-71
2023/01/21 04:15:37;;;;;;;;;;;28.90;91.10;;;;;;5028783;28;19909;-71
2023/01/21 04:18:04;;;;;;;;;;;29.00;91.10;;;;;;5029271;28;19913;-69
2023/01/21 04:20:30;;;;;;;;;;;29.20;90.20;;;;;;5030790;28;19927;-70
2023/01/21 04:22:57;;;;;;;;;;;29.60;90.50;;;;;;5027428;28;19956;-72
2023/01/21 04:25:24;;;;;;;;;;;29.60;89.70;;;;;;5029439;28;19963;-69
2023/01/21 04:27:50;;;;;;;;;;;29.00;90.70;;;;;;5031601;28;19928;-72
2023/01/21 04:30:17;;;;;;;;;;;28.60;90.80;;;;;;5027209;28;19916;-69
2023/01/21 04:32:45;;;;;;;;;;;28.40;91.00;;;;;;5028733;28;20280;-71
2023/01/21 04:35:12;;;;;;;;;;;28.40;91.40;;;;;;5027805;28;19924;-71
2023/01/21 04:37:38;;;;;;;;;;;28.70;91.10;;;;;;5031909;28;22471;-70
2023/01/21 04:40:06;;;;;;;;;;;28.80;90.80;;;;;;5029771;28;20318;-70
2023/01/21 04:42:35;;;;;;;;;;;28.70;90.90;;;;;;5028236;28;19952;-70
2023/01/21 04:45:03;;;;;;;;;;;28.50;91.10;;;;;;5029611;28;19913;-70
2023/01/21 04:47:29;;;;;;;;;;;28.60;91.70;;;;;;5030088;28;19916;-70
2023/01/21 04:49:56;;;;;;;;;;;28.90;91.70;;;;;;5028734;28;19991;-69
2023/01/21 04:52:23;;;;;;;;;;;29.20;91.60;;;;;;5027922;28;19939;-70
2023/01/21 04:54:49;;;;;;;;;;;29.40;90.50;;;;;;5029463;28;19917;-70
2023/01/21 04:57:16;;;;;;;;;;;29.50;91.00;;;;;;5029184;28;20854;-72
2023/01/21 04:59:43;;;;;;;;;;;29.50;91.60;;;;;;5030818;28;22404;-71
2023/01/21 05:02:09;;;;;;;;;;;29.20;92.00;;;;;;5030515;28;19923;-70
2023/01/21 05:04:36;;;;;;;;;;;28.80;92.20;;;;;;5027906;28;20013;-70
2023/01/21 05:07:04;;;;;;;;;;;28.70;92.60;;;;;;5028811;28;19916;-71
2023/01/21 05:09:31;;;;;;;;;;;28.40;92.70;;;;;;5029223;28;20019;-71
2023/01/21 05:11:57;;;;;;;;;;;28.30;92.60;;;;;;5029748;28;20390;-71
2023/01/21 05:14:24;;;;;;;;;;;28.10;92.80;;;;;;5038494;28;19912;-69
2023/01/21 05:16:50;;;;;;;;;;;28.00;93.00;;;;;;5027651;28;19987;-69
2023/01/21 05:19:17;;;;;;;;;;;27.90;92.80;;;;;;5028063;28;19963;-69
2023/01/21 05:21:44;;;;;;;;;;;27.80;93.00;;;;;;5029403;28;20590;-71
2023/01/21 05:24:10;;;;;;;;;;;27.90;92.80;;;;;;5028208;28;20359;-71
2023/01/21 05:26:37;;;;;;;;;;;27.80;93.40;;;;;;5029059;28;20310;-71
2023/01/21 05:29:04;;;;;;;;;;;27.70;93.10;;;;;;5027757;28;19962;-71
2023/01/21 05:31:30;;;;;;;;;;;27.80;93.20;;;;;;5027916;28;19971;-71
2023/01/21 05:33:57;;;;;;;;;;;27.90;93.30;;;;;;5027598;28;19925;-70
2023/01/21 05:36:24;;;;;;;;;;;28.00;92.90;;;;;;5027489;28;19943;-71
2023/01/21 05:38:50;;;;;;;;;;;28.10;92.50;;;;;;5027502;28;19913;-70
2023/01/21 05:41:17;;;;;;;;;;;27.80;92.40;;;;;;5029731;28;19917;-71
2023/01/21 05:43:45;;;;;;;;;;;27.60;92.70;;;;;;5026364;28;19920;-72
2023/01/21 05:46:12;;;;;;;;;;;27.50;93.00;;;;;;5027377;28;19913;-71
2023/01/21 05:48:39;;;;;;;;;;;27.30;93.20;;;;;;5027472;28;19916;-70
2023/01/21 05:51:05;;;;;;;;;;;27.00;93.60;;;;;;5029976;28;19921;-70
2023/01/21 05:53:32;;;;;;;;;;;26.80;93.70;;;;;;5026350;28;20873;-70
2023/01/21 05:55:59;;;;;;;;;;;26.60;93.50;;;;;;5024659;28;19956;-70
2023/01/21 05:58:25;;;;;;;;;;;26.40;93.80;;;;;;5027894;28;19916;-71
2023/01/21 06:00:52;;;;;;;;;;;26.30;93.70;;;;;;5027715;28;19913;-70
2023/01/21 06:03:19;;;;;;;;;;;26.30;93.90;;;;;;5022809;28;19948;-70
2023/01/21 06:05:48;;;;;;;;;;;26.20;93.70;;;;;;5024161;28;20217;-70
2023/01/21 06:08:14;;;;;;;;;;;26.20;93.70;;;;;;5022822;28;19928;-69
2023/01/21 06:10:41;;;;;;;;;;;26.30;93.40;;;;;;5029516;28;19928;-69
2023/01/21 06:13:11;;;;;;;;;;;26.30;93.50;;;;;;5023274;28;20322;-69
2023/01/21 06:15:37;;;;;;;;;;;26.30;93.60;;;;;;5023342;28;19912;-70
2023/01/21 06:18:04;;;;;;;;;;;26.20;93.80;;;;;;5023561;28;19919;-69
2023/01/21 06:20:31;;;;;;;;;;;26.30;93.90;;;;;;5022203;28;19924;-70
2023/01/21 06:22:58;;;;;;;;;;;26.30;93.80;;;;;;5025326;28;20922;-71
2023/01/21 06:25:25;;;;;;;;;;;26.40;93.60;;;;;;5024451;28;19916;-70
2023/01/21 06:27:54;;;;;;;;;;;26.60;93.70;;;;;;5029466;28;19925;-70
2023/01/21 06:30:22;;;;;;;;;;;26.60;93.60;;;;;;5029268;28;19975;-69
2023/01/21 06:32:48;;;;;;;;;;;26.50;93.60;;;;;;5030666;28;19917;-70
2023/01/21 06:35:15;;;;;;;;;;;26.50;93.60;;;;;;5025467;28;19909;-70
2023/01/21 06:37:43;;;;;;;;;;;26.50;93.90;;;;;;5027794;28;19948;-70
2023/01/21 06:40:10;;;;;;;;;;;26.40;94.00;;;;;;5026052;28;19988;-70
2023/01/21 06:42:37;;;;;;;;;;;26.30;94.20;;;;;;5028167;28;20437;-70
2023/01/21 06:45:04;;;;;;;;;;;26.20;94.80;;;;;;5025537;28;20010;-70
2023/01/21 06:47:31;;;;;;;;;;;26.10;94.80;;;;;;5042177;28;19917;-70
2023/01/21 06:49:58;;;;;;;;;;;25.80;95.00;;;;;;5024711;28;20078;-71
2023/01/21 06:52:24;;;;;;;;;;;25.60;95.30;;;;;;5025705;28;20011;-71
2023/01/21 06:54:51;;;;;;;;;;;25.40;95.40;;;;;;5025557;28;20413;-71
2023/01/21 06:57:17;;;;;;;;;;;25.20;95.40;;;;;;5027845;28;19943;-70
2023/01/21 06:59:44;;;;;;;;;;;25.10;95.80;;;;;;5027749;28;19941;-71
2023/01/21 07:02:13;;;;;;;;;;;24.90;95.90;;;;;;5026332;28;20278;-71
2023/01/21 07:04:40;;;;;;;;;;;24.90;96.10;;;;;;5021720;28;19956;-70
2023/01/21 07:07:07;;;;;;;;;;;24.90;96.00;;;;;;5030568;28;19909;-71
2023/01/21 07:09:34;;;;;;;;;;;24.90;95.80;;;;;;5037001;28;20303;-71
2023/01/21 07:12:00;;;;;;;;;;;24.90;95.70;;;;;;5027693;28;19917;-71
2023/01/21 07:14:27;;;;;;;;;;;24.90;95.70;;;;;;5028621;28;20574;-70
2023/01/21 07:16:54;;;;;;;;;;;24.70;96.20;;;;;;5026086;28;20676;-71
2023/01/21 07:19:20;;;;;;;;;;;24.60;96.40;;;;;;5024872;28;20703;-72
2023/01/21 07:21:47;;;;;;;;;;;24.60;96.40;;;;;;5027063;28;20035;-70
2023/01/21 07:24:13;;;;;;;;;;;24.60;96.60;;;;;;5027364;28;19916;-70
2023/01/21 07:26:40;;;;;;;;;;;24.50;96.90;;;;;;5025771;28;20432;-70
2023/01/21 07:29:07;;;;;;;;;;;24.50;96.70;;;;;;5025602;28;19951;-71
2023/01/21 07:31:34;;;;;;;;;;;24.50;96.70;;;;;;5030115;28;20295;-70
2023/01/21 07:34:03;;;;;;;;;;;24.60;96.90;;;;;;5029971;28;19924;-70
2023/01/21 07:36:30;;;;;;;;;;;24.50;97.20;;;;;;5029964;28;20012;-70
2023/01/21 07:38:57;;;;;;;;;;;24.40;97.60;;;;;;5028115;28;20103;-70
2023/01/21 07:41:24;;;;;;;;;;;24.20;97.70;;;;;;5030583;28;19917;-70
2023/01/21 07:43:51;;;;;;;;;;;24.00;97.90;;;;;;5030151;28;20514;-71
2023/01/21 07:46:21;;;;;;;;;;;23.90;98.20;;;;;;5031081;28;19913;-71
2023/01/21 07:48:48;;;;;;;;;;;23.90;98.30;;;;;;5028179;28;19917;-71
2023/01/21 07:51:15;;;;;;;;;;;23.90;98.30;;;;;;5031460;28;19920;-70
2023/01/21 07:53:41;;;;;;;;;;;23.70;98.20;;;;;;5028368;28;19913;-71
2023/01/21 07:56:11;;;;;;;;;;;23.60;98.40;;;;;;5029966;28;19912;-71
2023/01/21 07:58:38;;;;;;;;;;;23.60;98.80;;;;;;5030484;28;19919;-71
2023/01/21 08:01:09;;;;;;;;;;;23.60;99.00;;;;;;5030011;28;19940;-71
2023/01/21 08:03:36;;;;;;;;;;;23.40;99.50;;;;;;5029003;28;19951;-70
2023/01/21 08:06:04;;;;;;;;;;;23.40;99.90;;;;;;5029879;28;19913;-71
2023/01/21 08:08:31;;;;;;;;;;;23.30;99.90;;;;;;5032995;28;19975;-71
2023/01/21 08:10:58;;;;;;;;;;;23.20;99.90;;;;;;5029083;28;19960;-71
2023/01/21 08:13:28;;;;;;;;;;;23.10;99.90;;;;;;5040213;28;20374;-70
2023/01/21 08:15:55;;;;;;;;;;;23.10;99.90;;;;;;5029808;28;20941;-70
2023/01/21 08:18:22;;;;;;;;;;;23.10;99.30;;;;;;5030028;28;19920;-70
2023/01/21 08:20:56;;;;;;;;;;;23.00;98.80;;;;;;5028463;28;19936;-69
2023/01/21 08:23:23;;;;;;;;;;;23.00;98.60;;;;;;5027837;28;20410;-71
2023/01/21 08:25:49;;;;;;;;;;;22.90;98.60;;;;;;5027750;28;20364;-69
2023/01/21 08:28:16;;;;;;;;;;;23.00;99.00;;;;;;5028660;28;19916;-70
2023/01/21 08:30:43;;;;;;;;;;;23.00;99.40;;;;;;5030065;28;19931;-68
2023/01/21 08:33:09;;;;;;;;;;;23.00;99.70;;;;;;5030608;28;19931;-70
2023/01/21 08:35:36;;;;;;;;;;;23.00;99.90;;;;;;5030597;28;19916;-69
2023/01/21 08:38:03;;;;;;;;;;;23.00;99.90;;;;;;5032554;28;19917;-70
2023/01/21 08:40:29;;;;;;;;;;;23.00;99.90;;;;;;5030337;28;20014;-69
2023/01/21 08:43:00;;;;;;;;;;;23.00;99.90;;;;;;5032199;28;19959;-69
2023/01/21 08:45:27;;;;;;;;;;;23.10;99.90;;;;;;5033304;28;19971;-69
2023/01/21 08:47:54;;;;;;;;;;;23.00;99.90;;;;;;5029116;28;19970;-70
2023/01/21 08:50:21;;;;;;;;;;;23.00;99.90;;;;;;5030803;28;19936;-69
2023/01/21 08:52:54;;;;;;;;;;;23.10;99.90;;;;;;5029706;28;19970;-68
2023/01/21 08:55:25;;;;;;;;;;;23.00;99.90;;;;;;5027794;28;19928;-69
2023/01/21 08:57:55;;;;;;;;;;;23.00;99.90;;;;;;5031840;28;19943;-71
2023/01/21 09:00:22;;;;;;;;;;;22.90;99.80;;;;;;5030217;28;19928;-70
2023/01/21 09:02:49;;;;;;;;;;;22.90;99.70;;;;;;5028345;28;19916;-68
2023/01/21 09:05:16;;;;;;;;;;;22.80;99.50;;;;;;5028244;28;20461;-70
2023/01/21 09:07:43;;;;;;;;;;;22.90;99.60;;;;;;5027783;28;19917;-69
2023/01/21 09:10:10;;;;;;;;;;;22.90;99.50;;;;;;5028397;28;19970;-69
2023/01/21 09:12:39;;;;;;;;;;;22.90;99.60;;;;;;5030266;28;19916;-71
2023/01/21 09:15:06;;;;;;;;;;;22.80;99.60;;;;;;5028695;28;19927;-70
2023/01/21 09:17:33;;;;;;;;;;;22.80;99.70;;;;;;5030644;28;19974;-69
2023/01/21 09:19:59;;;;;;;;;;;22.80;99.90;;;;;;5027107;28;19925;-68
2023/01/21 09:22:26;;;;;;;;;;;22.80;99.90;;;;;;5028319;28;19919;-72
2023/01/21 09:24:53;;;;;;;;;;;22.70;99.90;;;;;;5028340;28;19913;-69
2023/01/21 09:27:26;;;;;;;;;;;22.70;99.90;;;;;;5028147;28;19912;-68
2023/01/21 09:29:53;;;;;;;;;;;22.50;99.90;;;;;;5028138;28;20007;-69
2023/01/21 09:32:20;;;;;;;;;;;22.60;99.90;;;;;;5030133;28;19939;-70
2023/01/21 09:34:46;;;;;;;;;;;22.60;99.90;;;;;;5030114;28;19915;-68
2023/01/21 09:37:13;;;;;;;;;;;22.50;99.90;;;;;;5028150;28;19917;-69
2023/01/21 09:39:40;;;;;;;;;;;22.50;99.90;;;;;;5027448;28;19919;-68
2023/01/21 09:42:15;;;;;;;;;;;22.50;99.90;;;;;;5027715;28;19985;-71
2023/01/21 09:44:43;;;;;;;;;;;22.40;99.90;;;;;;5026988;28;19941;-69
2023/01/21 09:47:24;;;;;;;;;;;22.30;99.90;;;;;;5028618;28;19912;-70
2023/01/21 09:50:03;;;;;;;;;;;22.20;99.90;;;;;;5027035;28;19920;-68
2023/01/21 09:52:29;;;;;;;;;;;22.20;99.90;;;;;;5029036;28;20003;-71
2023/01/21 09:54:56;;;;;;;;;;;22.20;99.90;;;;;;5026515;28;19939;-71
2023/01/21 09:57:52;;;;;;;;;;;22.20;99.90;;;;;;5029133;28;19920;-74
2023/01/21 10:00:25;;;;;;;;;;;22.10;99.90;;;;;;4966557;28;19914;-72
2023/01/21 10:03:03;;;;;;;;;;;22.00;99.90;;;;;;5027142;28;20668;-71
2023/01/21 10:05:32;;;;;;;;;;;22.00;99.90;;;;;;5028386;28;20902;-73
2023/01/21 10:08:13;;;;;;;;;;;21.90;99.90;;;;;;5028855;28;20088;-73
2023/01/21 10:10:46;;;;;;;;;;;21.80;99.90;;;;;;5029958;28;20155;-72
2023/01/21 10:13:30;;;;;;;;;;;21.80;99.90;;;;;;5029643;28;19909;-73
2023/01/21 10:16:15;;;;;;;;;;;21.70;99.90;;;;;;5030317;28;19917;-72
2023/01/21 10:18:45;;;;;;;;;;;21.70;99.90;;;;;;5039380;28;19920;-73
2023/01/21 10:21:29;;;;;;;;;;;21.60;99.90;;;;;;5027975;28;19913;-71
2023/01/21 10:24:01;;;;;;;;;;;21.50;99.90;;;;;;5025522;28;19913;-70
2023/01/21 10:26:29;;;;;;;;;;;21.50;99.90;;;;;;5028288;28;19951;-73
2023/01/21 10:28:55;;;;;;;;;;;21.50;99.90;;;;;;5028267;28;19913;-71
2023/01/21 10:31:31;;;;;;;;;;;21.40;99.90;;;;;;5027459;28;19921;-72
2023/01/21 10:33:58;;;;;;;;;;;21.40;99.90;;;;;;5025826;28;19925;-73
2023/01/21 10:36:25;;;;;;;;;;;21.30;99.90;;;;;;5028200;28;19974;-71
2023/01/21 10:39:07;;;;;;;;;;;21.30;99.90;;;;;;5026076;28;19943;-73
2023/01/21 10:41:49;;;;;;;;;;;21.30;99.90;;;;;;5027821;28;19912;-73
2023/01/21 10:44:38;;;;;;;;;;;21.20;99.90;;;;;;5028048;28;20387;-72
2023/01/21 10:47:17;;;;;;;;;;;21.20;99.90;;;;;;5029267;28;19916;-72
2023/01/21 10:49:48;;;;;;;;;;;21.10;99.90;;;;;;5026518;28;20071;-70
2023/01/21 10:52:33;;;;;;;;;;;21.00;99.90;;;;;;5025953;28;20065;-73
2023/01/21 10:55:00;;;;;;;;;;;21.00;99.90;;;;;;5025549;28;19913;-74
2023/01/21 10:57:33;;;;;;;;;;;21.00;99.90;;;;;;5027109;28;19966;-73
2023/01/21 11:00:01;;;;;;;;;;;21.00;99.90;;;;;;5022832;28;20366;-73
2023/01/21 11:02:31;;;;;;;;;;;20.90;99.90;;;;;;5021821;28;19979;-71
2023/01/21 11:05:01;;;;;;;;;;;20.90;99.90;;;;;;5037107;28;19916;-71
2023/01/21 11:07:31;;;;;;;;;;;20.90;99.90;;;;;;5025296;28;19995;-71
2023/01/21 11:10:00;;;;;;;;;;;20.80;99.90;;;;;;5028994;28;22009;-72
2023/01/21 11:12:26;;;;;;;;;;;20.80;99.90;;;;;;5023699;28;19952;-73
2023/01/21 11:14:56;;;;;;;;;;;20.80;99.90;;;;;;5022416;28;20076;-72
2023/01/21 11:17:35;;;;;;;;;;;20.80;99.90;;;;;;5029015;28;19947;-72
2023/01/21 11:20:05;;;;;;;;;;;20.80;99.90;;;;;;5026156;28;19916;-73
2023/01/21 11:22:32;;;;;;;;;;;20.80;99.90;;;;;;5027416;28;19917;-72
2023/01/21 11:25:01;;;;;;;;;;;20.80;99.90;;;;;;5029769;28;19920;-70
2023/01/21 11:27:27;;;;;;;;;;;20.80;99.90;;;;;;5026906;28;19919;-72
2023/01/21 11:29:54;;;;;;;;;;;20.80;99.90;;;;;;5023819;28;20030;-71
2023/01/21 11:32:21;;;;;;;;;;;20.80;99.90;;;;;;5027662;28;19917;-72
2023/01/21 11:34:58;;;;;;;;;;;20.80;99.90;;;;;;5027505;28;19927;-72
2023/01/21 11:37:26;;;;;;;;;;;20.90;99.90;;;;;;5026463;28;19917;-71
2023/01/21 11:40:19;;;;;;;;;;;20.80;99.90;;;;;;5024092;28;20371;-71
2023/01/21 11:42:50;;;;;;;;;;;20.80;99.90;;;;;;5025484;28;22402;-70
2023/01/21 11:45:35;;;;;;;;;;;20.90;99.90;;;;;;5041644;28;20011;-72
2023/01/21 11:48:13;;;;;;;;;;;20.80;99.90;;;;;;5025809;28;19912;-71
2023/01/21 11:50:40;;;;;;;;;;;20.80;99.90;;;;;;5027975;28;19921;-71
2023/01/21 11:53:12;;;;;;;;;;;20.80;99.90;;;;;;5028391;28;19916;-71
2023/01/21 11:55:40;;;;;;;;;;;20.70;99.90;;;;;;5026989;28;19959;-71
2023/01/21 11:58:28;;;;;;;;;;;20.70;99.90;;;;;;5027240;28;20238;-72
2023/01/21 12:00:56;;;;;;;;;;;20.70;99.90;;;;;;5028467;28;19916;-70
2023/01/21 12:03:25;;;;;;;;;;;20.70;99.90;;;;;;5027551;28;19917;-71
2023/01/21 12:05:52;;;;;;;;;;;20.60;99.90;;;;;;5024137;28;19909;-71
2023/01/21 12:08:28;;;;;;;;;;;20.50;99.90;;;;;;5026259;28;20509;-72
2023/01/21 12:10:56;;;;;;;;;;;20.50;99.90;;;;;;5029764;28;19927;-71
2023/01/21 12:13:48;;;;;;;;;;;20.50;99.90;;;;;;5026474;28;20136;-71
2023/01/21 12:16:14;;;;;;;;;;;20.50;99.90;;;;;;5027125;28;19912;-71
2023/01/21 12:18:53;;;;;;;;;;;20.50;99.90;;;;;;5029026;28;20363;-72
2023/01/21 12:21:35;;;;;;;;;;;20.50;99.90;;;;;;5042336;28;19919;-72
2023/01/21 12:24:14;;;;;;;;;;;20.50;99.90;;;;;;5028206;28;19917;-71
2023/01/21 12:26:46;;;;;;;;;;;20.50;99.90;;;;;;5029011;28;19916;-72
2023/01/21 12:29:31;;;;;;;;;;;20.50;99.90;;;;;;5027755;28;19967;-70
2023/01/21 12:32:01;;;;;;;;;;;20.50;99.90;;;;;;5029315;28;19935;-71
2023/01/21 12:34:43;;;;;;;;;;;20.40;99.90;;;;;;5030692;28;20007;-72
2023/01/21 12:37:17;;;;;;;;;;;20.40;99.90;;;;;;5027820;28;20346;-71
2023/01/21 12:39:46;;;;;;;;;;;20.50;99.90;;;;;;5028502;28;19913;-71
2023/01/21 12:42:20;;;;;;;;;;;20.40;99.90;;;;;;5029534;28;19924;-70
2023/01/21 12:44:52;;;;;;;;;;;20.40;99.90;;;;;;5029576;28;19912;-71
2023/01/21 12:47:22;;;;;;;;;;;20.40;99.90;;;;;;5029311;28;19992;-70
2023/01/21 12:49:54;;;;;;;;;;;20.40;99.90;;;;;;5032051;28;19921;-72
2023/01/21 12:52:41;;;;;;;;;;;20.40;99.90;;;;;;5029778;28;19995;-71
2023/01/21 12:55:08;;;;;;;;;;;20.40;99.90;;;;;;5028129;28;19909;-70
2023/01/21 12:57:40;;;;;;;;;;;20.40;99.90;;;;;;5034510;28;19948;-71
2023/01/21 13:00:24;;;;;;;;;;;20.40;99.90;;;;;;5030726;28;19919;-71
2023/01/21 13:02:59;;;;;;;;;;;20.40;99.90;;;;;;5034750;28;19920;-71
2023/01/21 13:05:30;;;;;;;;;;;20.40;99.90;;;;;;5043215;28;20381;-70
2023/01/21 13:08:02;;;;;;;;;;;20.40;99.90;;;;;;5037941;28;19916;-71
2023/01/21 13:10:32;;;;;;;;;;;20.50;99.90;;;;;;5036762;28;19925;-71
2023/01/21 13:13:16;;;;;;;;;;;20.50;99.90;;;;;;5032365;28;19913;-70
2023/01/21 13:15:44;;;;;;;;;;;20.50;99.90;;;;;;5030464;28;19917;-71
2023/01/21 13:18:16;;;;;;;;;;;20.50;99.90;;;;;;5031896;28;20371;-71
2023/01/21 13:20:48;;;;;;;;;;;20.50;99.90;;;;;;5030062;28;19917;-71
2023/01/21 13:23:28;;;;;;;;;;;20.50;99.90;;;;;;5032825;28;19924;-70
2023/01/21 13:26:00;;;;;;;;;;;20.50;99.90;;;;;;5032214;28;22741;-70
2023/01/21 13:28:33;;;;;;;;;;;20.50;99.90;;;;;;5030577;28;19913;-71
2023/01/21 13:31:06;;;;;;;;;;;20.50;99.90;;;;;;5033185;28;20382;-70
2023/01/21 13:33:46;;;;;;;;;;;20.50;99.90;;;;;;5031505;28;19925;-70
2023/01/21 13:36:19;;;;;;;;;;;20.50;99.90;;;;;;5032110;28;19916;-70
2023/01/21 13:38:45;;;;;;;;;;;20.60;99.90;;;;;;5031721;28;20348;-70
2023/01/21 13:41:18;;;;;;;;;;;20.60;99.90;;;;;;5032929;28;19916;-71
2023/01/21 13:43:53;;;;;;;;;;;20.50;99.90;;;;;;5030702;28;19932;-71
2023/01/21 13:46:20;;;;;;;;;;;20.50;99.90;;;;;;5032227;28;20898;-72
2023/01/21 13:48:53;;;;;;;;;;;20.50;99.90;;;;;;5030908;28;19924;-71
2023/01/21 13:51:37;;;;;;;;;;;20.50;99.90;;;;;;5031907;28;20446;-71
2023/01/21 13:54:23;;;;;;;;;;;20.40;99.90;;;;;;5030933;28;19948;-71
2023/01/21 13:56:52;;;;;;;;;;;20.40;99.90;;;;;;5032388;28;19927;-72
2023/01/21 13:59:22;;;;;;;;;;;20.40;99.90;;;;;;5031009;28;19926;-73
2023/01/21 14:02:09;;;;;;;;;;;20.30;99.90;;;;;;5031530;28;19927;-71
2023/01/21 14:04:36;;;;;;;;;;;20.30;99.90;;;;;;5029521;28;20669;-71
2023/01/21 14:07:08;;;;;;;;;;;20.30;99.90;;;;;;5031012;28;19913;-71
2023/01/21 14:09:41;;;;;;;;;;;20.20;99.90;;;;;;5031587;28;20011;-70
2023/01/21 14:12:17;;;;;;;;;;;20.20;99.90;;;;;;5031995;28;19921;-71
2023/01/21 14:15:01;;;;;;;;;;;20.20;99.90;;;;;;5038785;28;19917;-71
2023/01/21 14:17:46;;;;;;;;;;;20.20;99.90;;;;;;5031723;28;19917;-70
2023/01/21 14:20:35;;;;;;;;;;;20.10;99.90;;;;;;5031639;28;19917;-71
2023/01/21 14:23:20;;;;;;;;;;;20.10;99.90;;;;;;5029878;28;19928;-70
2023/01/21 14:26:05;;;;;;;;;;;20.10;99.90;;;;;;5029667;28;19923;-71
2023/01/21 14:28:44;;;;;;;;;;;20.20;99.90;;;;;;5029579;28;20896;-70
2023/01/21 14:31:13;;;;;;;;;;;20.20;99.90;;;;;;5030811;28;19960;-70
2023/01/21 14:33:44;;;;;;;;;;;20.20;99.90;;;;;;5030182;28;19916;-70
2023/01/21 14:36:22;;;;;;;;;;;20.20;99.90;;;;;;5031657;28;20008;-69
2023/01/21 14:39:18;;;;;;;;;;;20.20;99.90;;;;;;5030845;28;20645;-69
2023/01/21 14:42:03;;;;;;;;;;;20.20;99.90;;;;;;5030630;28;20650;-69